Time;durP1;ratioP1;P1;durP2;ratioP2;P2;SDS_P1;SDS_P2;PMS_P1;PMS_P2;Temp;Humidity;BMP_temperature;BMP_pressure;BME280_temperature;BME280_humidity;BME280_pressure;Samples;Min_cycle;Max_cycle;Signal;HPM_P1;HPM_P2
2024/01/30 00:00:37;;;;;;;16.53;8.27;;;4.00;99.90;;;;;;5038065;28;20650;-79
2024/01/30 00:03:04;;;;;;;17.00;9.40;;;3.80;99.90;;;;;;5037994;28;20207;-79
2024/01/30 00:05:32;;;;;;;14.60;8.43;;;3.90;1.00;;;;;;5037513;28;20290;-77
2024/01/30 00:07:59;;;;;;;14.20;8.70;;;3.80;1.00;;;;;;5039454;28;20200;-77
2024/01/30 00:10:26;;;;;;;14.47;8.73;;;3.80;1.00;;;;;;5043003;28;20209;-78
2024/01/30 00:12:53;;;;;;;15.00;8.63;;;3.90;99.90;;;;;;5036904;28;20219;-78
2024/01/30 00:15:20;;;;;;;15.37;8.90;;;3.90;97.30;;;;;;5037052;28;20200;-79
2024/01/30 00:17:46;;;;;;;15.73;8.80;;;3.80;1.00;;;;;;5029521;28;20204;-79
2024/01/30 00:20:13;;;;;;;16.77;9.27;;;3.70;1.00;;;;;;5042347;28;20572;-78
2024/01/30 00:22:41;;;;;;;15.23;9.00;;;3.80;1.00;;;;;;5042209;28;20198;-79
2024/01/30 00:25:09;;;;;;;16.77;8.07;;;3.70;1.00;;;;;;5042157;28;20226;-79
2024/01/30 00:27:36;;;;;;;16.20;8.77;;;3.80;1.00;;;;;;5036751;28;20227;-78
2024/01/30 00:30:03;;;;;;;14.03;8.20;;;3.60;1.00;;;;;;5042814;28;20199;-79
2024/01/30 00:32:30;;;;;;;16.03;9.37;;;3.60;1.00;;;;;;5040798;28;20715;-77
2024/01/30 00:34:56;;;;;;;15.43;8.07;;;3.70;99.90;;;;;;5041474;28;20206;-78
2024/01/30 00:37:23;;;;;;;17.23;8.83;;;3.80;99.90;;;;;;5040437;28;20219;-79
2024/01/30 00:39:51;;;;;;;14.00;7.90;;;3.70;1.00;;;;;;5033780;28;20566;-77
2024/01/30 00:42:19;;;;;;;15.10;8.50;;;3.50;1.00;;;;;;5035811;28;20214;-78
2024/01/30 00:44:46;;;;;;;14.07;8.17;;;3.50;1.00;;;;;;5037634;28;20211;-79
2024/01/30 00:47:12;;;;;;;14.20;8.07;;;3.60;1.00;;;;;;5044664;28;20229;-79
2024/01/30 00:49:39;;;;;;;14.03;8.43;;;3.50;1.00;;;;;;5036533;28;20199;-78
2024/01/30 00:52:06;;;;;;;12.57;7.83;;;3.40;1.00;;;;;;5035729;28;20226;-79
2024/01/30 00:54:33;;;;;;;14.70;8.90;;;3.20;1.00;;;;;;5034150;28;20198;-79
2024/01/30 00:57:01;;;;;;;15.80;9.40;;;3.30;1.00;;;;;;5036931;28;20225;-79
2024/01/30 00:59:28;;;;;;;16.37;8.83;;;3.50;99.90;;;;;;5032635;28;20230;-79
2024/01/30 01:01:55;;;;;;;13.03;7.87;;;3.50;99.90;;;;;;5037146;28;20196;-77
2024/01/30 01:04:22;;;;;;;14.07;8.33;;;3.50;99.90;;;;;;5036650;28;20207;-79
2024/01/30 01:06:49;;;;;;;15.77;9.37;;;3.40;99.90;;;;;;5034665;28;20693;-79
2024/01/30 01:09:15;;;;;;;16.50;8.80;;;3.30;1.00;;;;;;5035940;28;20218;-78
2024/01/30 01:11:42;;;;;;;15.20;8.50;;;3.40;1.00;;;;;;5034705;28;20225;-79
2024/01/30 01:14:10;;;;;;;16.27;8.60;;;3.50;1.00;;;;;;5046651;28;20214;-79
2024/01/30 01:16:37;;;;;;;15.73;9.03;;;3.70;1.00;;;;;;5036804;28;20235;-78
2024/01/30 01:19:04;;;;;;;14.47;8.83;;;3.90;1.00;;;;;;5034926;28;20290;-78
2024/01/30 01:21:31;;;;;;;15.70;7.90;;;3.80;1.00;;;;;;5039187;28;20204;-78
2024/01/30 01:23:57;;;;;;;15.57;9.53;;;3.90;1.00;;;;;;5029362;28;20294;-77
2024/01/30 01:26:24;;;;;;;18.80;10.43;;;4.10;1.00;;;;;;5039578;28;20222;-78
2024/01/30 01:28:51;;;;;;;14.00;8.40;;;4.00;1.00;;;;;;5036077;28;20202;-77
2024/01/30 01:31:22;;;;;;;13.30;7.87;;;3.70;99.90;;;;;;5043305;28;20219;-76
2024/01/30 01:33:49;;;;;;;15.00;8.87;;;3.30;1.00;;;;;;5036965;28;20608;-78
2024/01/30 01:36:16;;;;;;;19.30;8.80;;;3.20;1.00;;;;;;5036769;28;20616;-79
2024/01/30 01:38:43;;;;;;;15.07;9.10;;;3.20;1.00;;;;;;5033115;28;20655;-78
2024/01/30 01:41:09;;;;;;;17.60;9.10;;;3.20;1.00;;;;;;5033717;28;20294;-78
2024/01/30 01:43:37;;;;;;;15.53;9.03;;;3.20;3.60;;;;;;5036669;28;20207;-79
2024/01/30 01:46:05;;;;;;;15.63;8.90;;;3.40;93.30;;;;;;5038193;28;20228;-79
2024/01/30 01:48:33;;;;;;;15.20;9.23;;;3.30;92.50;;;;;;5035443;28;20210;-77
2024/01/30 01:51:00;;;;;;;17.17;8.83;;;3.50;99.90;;;;;;5034609;28;20196;-79
2024/01/30 01:53:27;;;;;;;17.27;9.37;;;3.50;99.90;;;;;;5035165;28;20228;-78
2024/01/30 01:55:55;;;;;;;15.03;9.23;;;3.60;99.90;;;;;;5036993;28;20224;-79
2024/01/30 01:58:23;;;;;;;14.53;8.57;;;3.40;42.20;;;;;;5036601;28;20203;-79
2024/01/30 02:00:51;;;;;;;17.03;9.50;;;3.50;58.80;;;;;;5035124;28;20214;-79
2024/01/30 02:03:21;;;;;;;18.20;9.13;;;3.60;99.90;;;;;;5032637;28;20270;-79
2024/01/30 02:05:50;;;;;;;18.00;9.13;;;3.50;19.30;;;;;;5034247;28;20223;-78
2024/01/30 02:08:17;;;;;;;16.53;8.80;;;3.60;31.50;;;;;;5035517;28;20207;-78
2024/01/30 02:10:43;;;;;;;15.37;8.53;;;3.60;1.00;;;;;;5042029;28;20208;-77
2024/01/30 02:13:10;;;;;;;16.53;10.10;;;3.60;1.00;;;;;;5035453;28;20219;-79
2024/01/30 02:15:37;;;;;;;17.57;9.17;;;3.60;1.00;;;;;;5042358;28;20211;-78
2024/01/30 02:18:04;;;;;;;14.67;8.60;;;3.60;1.00;;;;;;5042291;28;20210;-78
2024/01/30 02:20:32;;;;;;;14.90;8.63;;;3.70;1.00;;;;;;5034226;28;20199;-77
2024/01/30 02:23:02;;;;;;;16.67;9.47;;;3.50;1.00;;;;;;5038991;28;20244;-78
2024/01/30 02:25:33;;;;;;;16.30;9.10;;;3.50;1.00;;;;;;5048119;28;20214;-78
2024/01/30 02:28:00;;;;;;;15.20;9.23;;;3.50;28.70;;;;;;5040247;28;20668;-78
2024/01/30 02:30:27;;;;;;;15.73;8.93;;;3.40;71.10;;;;;;5043698;28;20582;-79
2024/01/30 02:32:54;;;;;;;16.83;9.13;;;3.50;99.90;;;;;;5028662;28;20221;-79
2024/01/30 02:35:21;;;;;;;17.13;9.23;;;3.50;99.90;;;;;;5038563;28;20199;-78
2024/01/30 02:37:47;;;;;;;16.17;9.33;;;3.50;99.90;;;;;;5040276;28;20275;-77
2024/01/30 02:40:16;;;;;;;16.07;8.93;;;3.50;99.90;;;;;;5029919;28;20200;-78
2024/01/30 02:42:42;;;;;;;14.73;8.33;;;3.50;99.90;;;;;;5035715;28;20191;-79
2024/01/30 02:45:11;;;;;;;14.93;8.93;;;3.50;99.90;;;;;;5036128;28;20210;-79
2024/01/30 02:47:38;;;;;;;17.03;9.33;;;3.50;99.90;;;;;;5033051;28;20228;-79
2024/01/30 02:50:05;;;;;;;19.53;10.50;;;3.60;99.90;;;;;;5034781;28;20643;-79
2024/01/30 02:52:32;;;;;;;15.70;8.80;;;3.70;99.90;;;;;;5035019;28;20230;-78
2024/01/30 02:54:59;;;;;;;16.87;9.50;;;3.80;99.90;;;;;;5034143;28;20214;-79
2024/01/30 02:57:27;;;;;;;16.63;9.33;;;3.70;99.90;;;;;;5041564;28;20232;-78
2024/01/30 02:59:54;;;;;;;17.50;9.53;;;3.70;99.90;;;;;;5037868;28;20204;-79
2024/01/30 03:02:21;;;;;;;16.77;9.60;;;3.80;99.90;;;;;;5040606;28;20204;-77
2024/01/30 03:04:48;;;;;;;17.53;10.33;;;3.80;99.90;;;;;;5039018;28;20203;-77
2024/01/30 03:07:14;;;;;;;18.00;9.90;;;3.90;99.90;;;;;;5038476;28;20223;-79
2024/01/30 03:09:43;;;;;;;16.23;9.40;;;3.90;99.90;;;;;;5036933;28;20204;-79
2024/01/30 03:12:09;;;;;;;19.47;10.37;;;3.80;99.90;;;;;;5038118;28;20228;-80
2024/01/30 03:14:37;;;;;;;16.77;9.30;;;3.70;99.90;;;;;;5038662;28;20206;-78
2024/01/30 03:17:04;;;;;;;17.33;9.50;;;3.80;99.90;;;;;;5038891;28;20230;-78
2024/01/30 03:19:31;;;;;;;17.33;9.13;;;3.80;99.90;;;;;;5036912;28;20203;-77
2024/01/30 03:21:58;;;;;;;17.53;10.30;;;3.80;99.90;;;;;;5033267;28;20197;-79
2024/01/30 03:24:24;;;;;;;18.07;9.27;;;4.00;99.90;;;;;;5036768;28;20658;-79
2024/01/30 03:26:51;;;;;;;17.70;9.57;;;4.10;99.90;;;;;;5040655;28;20713;-79
2024/01/30 03:29:18;;;;;;;19.93;9.77;;;4.20;99.90;;;;;;5038267;28;20222;-79
2024/01/30 03:31:46;;;;;;;16.83;9.63;;;4.20;99.90;;;;;;5037088;28;20208;-78
2024/01/30 03:34:13;;;;;;;19.37;9.70;;;4.10;99.90;;;;;;5041663;28;20211;-78
2024/01/30 03:36:40;;;;;;;14.83;9.13;;;4.10;99.90;;;;;;5040360;28;20717;-79
2024/01/30 03:39:07;;;;;;;14.67;8.97;;;4.00;99.90;;;;;;5042471;28;20208;-78
2024/01/30 03:41:34;;;;;;;14.97;8.80;;;4.10;99.90;;;;;;5044910;28;20318;-79
2024/01/30 03:44:00;;;;;;;17.10;9.40;;;4.10;99.90;;;;;;5042391;28;20200;-78
2024/01/30 03:46:27;;;;;;;17.00;9.40;;;4.20;99.90;;;;;;5047989;28;20232;-78
2024/01/30 03:48:55;;;;;;;14.60;8.80;;;4.20;99.90;;;;;;5038176;28;20570;-80
2024/01/30 03:51:22;;;;;;;14.20;8.47;;;4.40;99.90;;;;;;5036155;28;20204;-80
2024/01/30 03:53:49;;;;;;;16.47;9.50;;;4.60;87.10;;;;;;5041811;28;20223;-79
2024/01/30 03:56:16;;;;;;;13.90;8.03;;;4.60;1.00;;;;;;5041223;28;20230;-78
2024/01/30 03:58:42;;;;;;;15.27;8.20;;;4.70;1.00;;;;;;5043152;28;20199;-80
2024/01/30 04:01:14;;;;;;;14.20;8.63;;;4.80;99.90;;;;;;5041591;28;20580;-79
2024/01/30 04:03:41;;;;;;;21.03;9.60;;;4.80;99.90;;;;;;5041117;28;20589;-80
2024/01/30 04:06:09;;;;;;;15.60;8.73;;;4.90;1.00;;;;;;5041504;28;20228;-79
2024/01/30 04:08:36;;;;;;;16.80;9.50;;;5.20;92.30;;;;;;5040454;28;20203;-79
2024/01/30 04:11:06;;;;;;;15.10;8.47;;;5.00;1.00;;;;;;5040711;28;20658;-79
2024/01/30 04:13:33;;;;;;;16.33;9.00;;;5.30;1.00;;;;;;5046028;28;20220;-80
2024/01/30 04:16:01;;;;;;;14.87;8.57;;;5.30;99.90;;;;;;5048273;28;20230;-80
2024/01/30 04:18:27;;;;;;;12.73;8.20;;;5.40;1.00;;;;;;5048180;28;20277;-77
2024/01/30 04:20:54;;;;;;;13.70;7.73;;;5.60;99.90;;;;;;5040914;28;20206;-79
2024/01/30 04:23:24;;;;;;;51.93;33.67;;;5.70;92.50;;;;;;5032358;28;20220;-78
2024/01/30 04:25:51;;;;;;;17.97;9.60;;;5.50;1.00;;;;;;5035313;28;20575;-78
2024/01/30 04:28:18;;;;;;;13.03;7.60;;;5.30;1.00;;;;;;5038380;28;20218;-78
2024/01/30 04:30:45;;;;;;;16.40;8.50;;;5.20;1.00;;;;;;5039794;28;20196;-77
2024/01/30 04:33:12;;;;;;;12.97;7.67;;;5.30;1.00;;;;;;5032164;28;20230;-77
2024/01/30 04:35:39;;;;;;;15.23;8.53;;;5.00;99.90;;;;;;5045669;28;20467;-80
2024/01/30 04:38:05;;;;;;;12.90;7.53;;;4.80;1.00;;;;;;5036254;28;20571;-80
2024/01/30 04:40:34;;;;;;;15.43;8.07;;;5.20;1.00;;;;;;5045188;28;20555;-79
2024/01/30 04:43:00;;;;;;;13.70;7.87;;;5.00;1.00;;;;;;5040956;28;20196;-79
2024/01/30 04:45:27;;;;;;;15.20;8.27;;;4.90;1.00;;;;;;5048167;28;20203;-80
2024/01/30 04:47:54;;;;;;;12.53;8.03;;;4.80;1.00;;;;;;5039084;28;20226;-80
2024/01/30 04:50:20;;;;;;;13.87;8.60;;;4.70;1.00;;;;;;5042156;28;20299;-79
2024/01/30 04:52:47;;;;;;;13.00;8.00;;;4.80;99.90;;;;;;5036673;28;20227;-80
2024/01/30 04:55:14;;;;;;;12.83;7.80;;;4.80;99.90;;;;;;5036877;28;20208;-79
2024/01/30 04:57:42;;;;;;;14.37;7.53;;;4.80;80.00;;;;;;5038524;28;20219;-80
2024/01/30 05:00:10;;;;;;;15.63;8.57;;;4.70;99.90;;;;;;5037663;28;20219;-78
2024/01/30 05:02:37;;;;;;;13.93;8.27;;;4.90;99.90;;;;;;5037428;28;20200;-79
2024/01/30 05:05:04;;;;;;;14.40;8.90;;;5.00;1.00;;;;;;5037510;28;20388;-79
2024/01/30 05:07:31;;;;;;;13.97;8.73;;;5.00;1.00;;;;;;5037243;28;20229;-79
2024/01/30 05:09:58;;;;;;;13.10;8.13;;;5.00;1.00;;;;;;5037856;28;20206;-80
2024/01/30 05:12:24;;;;;;;14.90;8.43;;;4.90;1.00;;;;;;5038567;28;20204;-79
2024/01/30 05:14:53;;;;;;;15.03;8.10;;;4.80;1.00;;;;;;5042262;28;20205;-77
2024/01/30 05:17:19;;;;;;;16.83;9.07;;;4.60;1.00;;;;;;5037361;28;20263;-79
2024/01/30 05:19:46;;;;;;;14.53;8.27;;;4.80;99.90;;;;;;5038683;28;20667;-79
2024/01/30 05:22:15;;;;;;;14.80;8.27;;;4.80;99.90;;;;;;5033189;28;20214;-79
2024/01/30 05:24:42;;;;;;;14.70;9.03;;;4.80;1.00;;;;;;5037308;28;20291;-79
2024/01/30 05:27:09;;;;;;;17.53;8.50;;;5.10;1.00;;;;;;5036769;28;20278;-79
2024/01/30 05:29:36;;;;;;;15.33;8.77;;;5.40;1.00;;;;;;5037449;28;20673;-79
2024/01/30 05:32:05;;;;;;;14.73;8.27;;;5.30;1.00;;;;;;5035383;28;20215;-80
2024/01/30 05:34:31;;;;;;;15.40;8.97;;;5.00;99.90;;;;;;5040857;28;20685;-80
2024/01/30 05:36:58;;;;;;;15.10;8.47;;;4.90;99.90;;;;;;5040043;28;20686;-80
2024/01/30 05:39:25;;;;;;;17.47;9.43;;;4.90;1.00;;;;;;5044360;28;20361;-79
2024/01/30 05:41:52;;;;;;;15.13;8.40;;;5.00;1.00;;;;;;5035235;28;20196;-78
2024/01/30 05:44:19;;;;;;;18.53;9.07;;;5.00;1.00;;;;;;5039784;28;20191;-79
2024/01/30 05:46:45;;;;;;;16.23;10.03;;;5.00;99.90;;;;;;5042622;28;20524;-79
2024/01/30 05:49:13;;;;;;;14.50;8.70;;;4.90;1.00;;;;;;5034801;28;20206;-79
2024/01/30 05:51:40;;;;;;;16.63;8.37;;;5.30;1.00;;;;;;5037727;28;20208;-78
2024/01/30 05:54:07;;;;;;;14.90;8.23;;;5.10;99.90;;;;;;5037002;28;20220;-79
2024/01/30 05:56:34;;;;;;;17.80;9.30;;;5.20;99.90;;;;;;5038139;28;20219;-80
2024/01/30 05:59:00;;;;;;;13.70;8.33;;;5.40;99.90;;;;;;5038267;28;20547;-77
2024/01/30 06:01:29;;;;;;;14.57;8.50;;;5.20;1.00;;;;;;5036483;28;20210;-79
2024/01/30 06:03:56;;;;;;;14.37;8.77;;;5.10;99.50;;;;;;5036023;28;20192;-79
2024/01/30 06:06:24;;;;;;;14.97;8.60;;;5.30;99.90;;;;;;5035641;28;20669;-77
2024/01/30 06:08:51;;;;;;;14.73;8.93;;;5.00;1.00;;;;;;5032229;28;20567;-78
2024/01/30 06:11:18;;;;;;;15.43;9.13;;;4.70;99.90;;;;;;5034987;28;20555;-80
2024/01/30 06:13:44;;;;;;;12.87;8.10;;;4.50;99.90;;;;;;5040491;28;20807;-80
2024/01/30 06:16:12;;;;;;;13.83;8.57;;;4.70;99.90;;;;;;5042157;28;20294;-78
2024/01/30 06:18:39;;;;;;;12.77;8.37;;;4.80;1.00;;;;;;5037660;28;20204;-79
2024/01/30 06:21:06;;;;;;;16.27;8.63;;;4.60;1.00;;;;;;5033544;28;20222;-79
2024/01/30 06:23:34;;;;;;;14.10;8.87;;;4.50;99.90;;;;;;5035819;28;20196;-78
2024/01/30 06:26:01;;;;;;;16.20;8.37;;;4.20;99.90;;;;;;5036176;28;20219;-79
2024/01/30 06:28:28;;;;;;;14.10;8.73;;;4.40;1.00;;;;;;5036567;28;20639;-79
2024/01/30 06:30:55;;;;;;;13.70;8.63;;;4.30;1.00;;;;;;5039115;28;20658;-79
2024/01/30 06:33:21;;;;;;;15.93;8.37;;;4.30;1.00;;;;;;5038125;28;20220;-78
2024/01/30 06:35:48;;;;;;;15.23;8.80;;;4.20;1.00;;;;;;5037834;28;20219;-79
2024/01/30 06:38:15;;;;;;;15.77;8.97;;;4.10;66.70;;;;;;5038253;28;20578;-79
2024/01/30 06:40:43;;;;;;;15.67;8.97;;;4.00;99.90;;;;;;5037838;28;20230;-77
2024/01/30 06:43:11;;;;;;;20.10;11.27;;;3.90;99.90;;;;;;5037617;28;20577;-78
2024/01/30 06:45:38;;;;;;;18.83;9.77;;;4.10;1.00;;;;;;5041666;28;20626;-79
2024/01/30 06:48:05;;;;;;;16.23;9.70;;;3.90;1.00;;;;;;5041022;28;20195;-78
2024/01/30 06:50:32;;;;;;;17.40;10.30;;;4.10;9.30;;;;;;5042544;28;20214;-79
2024/01/30 06:52:59;;;;;;;17.77;10.83;;;3.90;1.00;;;;;;5037656;28;20199;-79
2024/01/30 06:55:25;;;;;;;19.87;10.50;;;4.10;99.90;;;;;;5041794;28;20204;-79
2024/01/30 06:57:53;;;;;;;16.90;10.13;;;4.10;99.90;;;;;;5041506;28;20358;-79
2024/01/30 07:00:21;;;;;;;18.83;9.87;;;4.20;99.90;;;;;;5037043;28;20428;-78
2024/01/30 07:02:48;;;;;;;14.73;9.13;;;4.00;1.00;;;;;;5040769;28;20210;-79
2024/01/30 07:05:15;;;;;;;20.13;10.50;;;3.90;1.00;;;;;;5039335;28;20204;-76
2024/01/30 07:07:42;;;;;;;18.50;10.70;;;3.90;1.00;;;;;;5036970;28;20219;-80
2024/01/30 07:10:09;;;;;;;19.17;10.60;;;3.90;1.00;;;;;;5037016;28;20207;-78
2024/01/30 07:12:36;;;;;;;17.97;9.57;;;3.80;1.00;;;;;;5042049;28;20200;-79
2024/01/30 07:15:07;;;;;;;17.83;9.77;;;3.50;1.00;;;;;;5042341;28;20659;-78
2024/01/30 07:17:34;;;;;;;13.93;8.80;;;3.50;1.00;;;;;;5043399;28;20315;-78
2024/01/30 07:20:03;;;;;;;17.07;9.17;;;3.60;99.90;;;;;;5045981;28;20210;-79
2024/01/30 07:22:33;;;;;;;15.83;9.83;;;3.50;99.90;;;;;;5039943;28;20231;-79
2024/01/30 07:25:00;;;;;;;16.60;9.47;;;3.60;1.00;;;;;;5048308;28;20222;-77
2024/01/30 07:27:26;;;;;;;18.33;9.80;;;3.80;1.00;;;;;;5039455;28;20590;-77
2024/01/30 07:29:53;;;;;;;15.40;9.43;;;3.60;1.00;;;;;;5041695;28;20287;-79
2024/01/30 07:32:21;;;;;;;18.97;10.30;;;3.60;1.00;;;;;;5038947;28;20214;-78
2024/01/30 07:34:48;;;;;;;17.47;9.77;;;3.60;1.00;;;;;;5037839;28;20231;-79
2024/01/30 07:37:15;;;;;;;18.13;9.83;;;3.50;1.00;;;;;;5037416;28;20230;-79
2024/01/30 07:39:43;;;;;;;18.60;9.97;;;3.50;1.00;;;;;;5037725;28;20654;-78
2024/01/30 07:42:10;;;;;;;17.27;10.00;;;3.60;1.00;;;;;;5036071;28;20286;-79
2024/01/30 07:44:36;;;;;;;18.53;9.80;;;3.50;1.00;;;;;;5036487;28;20208;-78
2024/01/30 07:47:04;;;;;;;17.47;9.80;;;3.60;1.00;;;;;;5038670;28;20612;-79
2024/01/30 07:49:33;;;;;;;17.33;9.70;;;3.70;1.00;;;;;;5042771;28;20640;-78
2024/01/30 07:52:03;;;;;;;16.90;10.13;;;3.80;1.00;;;;;;5040585;28;20227;-78
2024/01/30 07:54:34;;;;;;;16.07;9.80;;;3.80;1.00;;;;;;5037159;28;20696;-80
2024/01/30 07:57:01;;;;;;;17.87;10.23;;;3.80;1.00;;;;;;5037951;28;20308;-80
2024/01/30 07:59:28;;;;;;;15.93;9.00;;;4.00;1.00;;;;;;5041007;28;20675;-79
2024/01/30 08:01:55;;;;;;;17.30;10.33;;;3.90;1.00;;;;;;5036581;28;20643;-79
2024/01/30 08:04:22;;;;;;;15.23;9.60;;;4.00;1.00;;;;;;5035995;28;21550;-79
2024/01/30 08:06:50;;;;;;;15.63;9.73;;;4.00;1.00;;;;;;5037882;28;20246;-79
2024/01/30 08:09:17;;;;;;;15.43;9.57;;;4.10;1.00;;;;;;5036610;28;20210;-79
2024/01/30 08:11:43;;;;;;;16.00;9.47;;;4.30;1.00;;;;;;5036788;28;20670;-78
2024/01/30 08:14:10;;;;;;;16.53;9.33;;;4.30;99.90;;;;;;5036047;28;20727;-77
2024/01/30 08:16:37;;;;;;;15.70;9.50;;;4.40;99.90;;;;;;5039473;28;20228;-79
2024/01/30 08:19:04;;;;;;;15.60;9.07;;;4.50;99.90;;;;;;5044098;28;20198;-79
2024/01/30 08:21:35;;;;;;;16.77;9.57;;;4.60;37.50;;;;;;5035897;28;20227;-77
2024/01/30 08:24:04;;;;;;;15.77;9.27;;;4.70;1.00;;;;;;5034004;28;20663;-79
2024/01/30 08:26:31;;;;;;;15.27;9.37;;;4.80;1.00;;;;;;5037321;28;20223;-79
2024/01/30 08:28:58;;;;;;;18.67;9.50;;;5.10;1.00;;;;;;5038999;28;20906;-78
2024/01/30 08:31:25;;;;;;;17.77;10.00;;;5.10;1.00;;;;;;5040363;28;20211;-79
2024/01/30 08:33:52;;;;;;;16.10;8.97;;;5.20;99.90;;;;;;5038933;28;20223;-79
2024/01/30 08:36:19;;;;;;;16.37;9.47;;;5.30;99.90;;;;;;5035381;28;20219;-79
2024/01/30 08:38:45;;;;;;;13.57;8.67;;;5.20;1.00;;;;;;5035406;28;20206;-79
2024/01/30 08:41:14;;;;;;;15.87;9.13;;;5.20;1.00;;;;;;5036530;28;20203;-78
2024/01/30 08:43:41;;;;;;;13.60;8.47;;;5.30;1.00;;;;;;5037089;28;20666;-78
2024/01/30 08:46:07;;;;;;;16.10;9.13;;;5.30;1.00;;;;;;5037533;28;20227;-79
2024/01/30 08:48:34;;;;;;;14.53;9.03;;;5.30;1.00;;;;;;5036033;28;20597;-79
2024/01/30 08:51:01;;;;;;;15.37;8.93;;;5.50;1.00;;;;;;5034564;28;20226;-77
2024/01/30 08:53:28;;;;;;;14.97;8.47;;;5.60;1.00;;;;;;5035336;28;20295;-78
2024/01/30 08:55:55;;;;;;;15.83;8.90;;;5.70;1.00;;;;;;5039722;28;20736;-77
2024/01/30 08:58:23;;;;;;;15.10;8.80;;;5.90;1.00;;;;;;5040598;28;20693;-78
2024/01/30 09:00:51;;;;;;;14.23;8.80;;;5.90;99.90;;;;;;5037214;28;20679;-79
2024/01/30 09:03:18;;;;;;;17.23;9.87;;;6.10;1.00;;;;;;5035935;28;20204;-79
2024/01/30 09:05:45;;;;;;;13.83;8.33;;;6.30;1.00;;;;;;5033875;28;20282;-79
2024/01/30 09:08:11;;;;;;;16.53;8.73;;;6.40;99.90;;;;;;5035073;28;20207;-78
2024/01/30 09:10:38;;;;;;;19.53;11.70;;;6.80;1.00;;;;;;5034581;28;20219;-79
2024/01/30 09:13:05;;;;;;;18.93;11.53;;;6.90;1.00;;;;;;5040842;28;20666;-80
2024/01/30 09:15:33;;;;;;;16.00;10.63;;;7.00;1.00;;;;;;5038925;28;20690;-79
2024/01/30 09:18:00;;;;;;;22.10;13.13;;;7.00;1.00;;;;;;5035083;28;20206;-79
2024/01/30 09:20:27;;;;;;;17.37;10.97;;;7.00;1.00;;;;;;5040210;28;20212;-79
2024/01/30 09:22:53;;;;;;;17.23;10.47;;;6.90;1.00;;;;;;5045821;28;20286;-79
2024/01/30 09:25:20;;;;;;;16.63;10.23;;;7.00;1.00;;;;;;5041806;28;20579;-79
2024/01/30 09:27:47;;;;;;;15.60;9.63;;;7.10;1.00;;;;;;5042210;28;20199;-79
2024/01/30 09:30:14;;;;;;;15.20;8.60;;;7.00;1.00;;;;;;5042098;28;20645;-80
2024/01/30 09:32:43;;;;;;;15.07;8.93;;;7.10;1.00;;;;;;5035325;28;20200;-78
2024/01/30 09:35:10;;;;;;;14.47;8.47;;;7.10;1.00;;;;;;5037376;28;20231;-77
2024/01/30 09:37:37;;;;;;;13.20;8.70;;;7.20;1.00;;;;;;5039971;28;20221;-79
2024/01/30 09:40:05;;;;;;;13.27;8.40;;;7.30;1.00;;;;;;5038481;28;20692;-78
2024/01/30 09:42:35;;;;;;;15.10;8.77;;;7.30;1.00;;;;;;5036341;28;20218;-79
2024/01/30 09:45:02;;;;;;;13.30;8.60;;;7.40;1.00;;;;;;5036245;28;20207;-79
2024/01/30 09:47:32;;;;;;;16.47;9.07;;;7.50;1.00;;;;;;5037455;28;20626;-79
2024/01/30 09:50:03;;;;;;;16.87;9.23;;;7.60;1.00;;;;;;5035121;28;20225;-77
2024/01/30 09:52:30;;;;;;;15.10;8.57;;;7.70;99.90;;;;;;5035628;28;20199;-79
2024/01/30 09:54:57;;;;;;;13.47;8.47;;;7.70;1.00;;;;;;5035493;28;20600;-78
2024/01/30 09:57:26;;;;;;;12.90;7.90;;;7.80;1.00;;;;;;5034644;28;20234;-77
2024/01/30 09:59:53;;;;;;;13.87;8.80;;;7.90;1.00;;;;;;5034806;28;20206;-78
2024/01/30 10:02:20;;;;;;;13.03;8.70;;;8.00;1.00;;;;;;5035924;28;20200;-79
2024/01/30 10:04:49;;;;;;;13.57;7.93;;;8.00;1.00;;;;;;5036017;28;20553;-79
2024/01/30 10:07:19;;;;;;;16.17;8.63;;;8.10;99.90;;;;;;5033231;28;20228;-77
2024/01/30 10:09:45;;;;;;;13.20;8.13;;;8.20;99.90;;;;;;5033773;28;20230;-79
2024/01/30 10:12:12;;;;;;;15.10;9.47;;;8.30;99.90;;;;;;5040983;28;20229;-79
2024/01/30 10:14:40;;;;;;;14.70;9.20;;;8.40;90.20;;;;;;5040300;28;20678;-79
2024/01/30 10:17:09;;;;;;;13.63;8.07;;;8.60;47.40;;;;;;5037682;28;20580;-78
2024/01/30 10:19:36;;;;;;;12.87;8.10;;;8.70;99.90;;;;;;5046318;28;20199;-79
2024/01/30 10:22:03;;;;;;;14.40;8.90;;;8.70;1.00;;;;;;5047675;28;20203;-79
2024/01/30 10:24:34;;;;;;;14.77;8.60;;;8.80;27.80;;;;;;5040730;28;20206;-79
2024/01/30 10:27:00;;;;;;;14.23;8.43;;;8.80;1.00;;;;;;5041495;28;20218;-78
2024/01/30 10:29:28;;;;;;;12.97;7.77;;;8.90;1.00;;;;;;5039593;28;20211;-77
2024/01/30 10:32:01;;;;;;;13.27;8.27;;;9.00;1.00;;;;;;5037838;28;20224;-79
2024/01/30 10:34:28;;;;;;;12.63;8.33;;;9.20;1.00;;;;;;5037877;28;20219;-79
2024/01/30 10:37:01;;;;;;;14.40;8.37;;;9.30;1.00;;;;;;5039842;28;20287;-78
2024/01/30 10:39:32;;;;;;;12.30;7.63;;;9.30;1.00;;;;;;5036076;28;20207;-79
2024/01/30 10:42:05;;;;;;;14.17;8.10;;;9.60;1.00;;;;;;5037864;28;20643;-79
2024/01/30 10:44:40;;;;;;;12.80;7.70;;;9.70;1.00;;;;;;5041483;28;21007;-79
2024/01/30 10:47:10;;;;;;;11.70;8.03;;;9.70;99.90;;;;;;5034076;28;20594;-79
2024/01/30 10:49:37;;;;;;;13.43;7.93;;;9.90;99.90;;;;;;5036129;28;20199;-79
2024/01/30 10:52:06;;;;;;;11.10;7.37;;;9.90;99.90;;;;;;5035597;28;20204;-79
2024/01/30 10:54:35;;;;;;;10.80;7.27;;;9.90;99.90;;;;;;5035260;28;20309;-79
2024/01/30 10:57:03;;;;;;;12.97;8.07;;;10.10;1.00;;;;;;5035650;28;20234;-78
2024/01/30 10:59:31;;;;;;;13.33;8.33;;;10.10;1.00;;;;;;5034641;28;20239;-78
2024/01/30 11:01:58;;;;;;;10.43;7.53;;;9.90;1.00;;;;;;5034455;28;20196;-78
2024/01/30 11:04:26;;;;;;;11.27;7.67;;;9.80;1.00;;;;;;5032667;28;20200;-79
2024/01/30 11:06:54;;;;;;;12.83;8.33;;;9.70;1.00;;;;;;5027757;28;20223;-79
2024/01/30 11:09:20;;;;;;;12.67;7.43;;;10.10;1.00;;;;;;5033554;28;20271;-78
2024/01/30 11:11:52;;;;;;;12.20;8.20;;;10.20;1.00;;;;;;5041099;28;20293;-79
2024/01/30 11:14:25;;;;;;;13.03;7.57;;;10.30;1.00;;;;;;5040870;28;20242;-79
2024/01/30 11:16:52;;;;;;;12.87;8.17;;;10.30;1.00;;;;;;5040434;28;20231;-79
2024/01/30 11:19:24;;;;;;;11.67;8.10;;;10.30;1.00;;;;;;5047907;28;20207;-78
2024/01/30 11:21:53;;;;;;;13.07;7.87;;;10.30;1.00;;;;;;5037604;28;20607;-78
2024/01/30 11:24:20;;;;;;;11.37;7.50;;;10.20;1.00;;;;;;5049304;28;20237;-79
2024/01/30 11:26:49;;;;;;;10.50;7.60;;;10.20;1.00;;;;;;5041827;28;20228;-80
2024/01/30 11:29:18;;;;;;;13.03;7.00;;;10.20;1.00;;;;;;5046943;28;20551;-80
2024/01/30 11:31:53;;;;;;;11.87;7.30;;;10.20;1.00;;;;;;5037030;28;20669;-79
2024/01/30 11:34:21;;;;;;;13.40;7.83;;;10.40;1.00;;;;;;5039080;28;20211;-79
2024/01/30 11:36:55;;;;;;;11.50;7.17;;;10.10;1.00;;;;;;5045950;28;20239;-79
2024/01/30 11:39:22;;;;;;;14.70;7.77;;;10.20;1.00;;;;;;5038579;28;20224;-79
2024/01/30 11:41:51;;;;;;;10.33;7.03;;;10.20;1.00;;;;;;5037214;28;20659;-79
2024/01/30 11:44:21;;;;;;;10.87;6.47;;;10.30;1.00;;;;;;5041138;28;20199;-78
2024/01/30 11:46:48;;;;;;;12.87;7.47;;;10.30;1.00;;;;;;5040504;28;20227;-78
2024/01/30 11:49:15;;;;;;;12.23;7.70;;;10.30;1.00;;;;;;5042437;28;20207;-79
2024/01/30 11:51:42;;;;;;;11.03;7.53;;;10.30;1.00;;;;;;5042158;28;20214;-78
2024/01/30 11:54:09;;;;;;;10.57;6.80;;;10.40;1.00;;;;;;5041015;28;20208;-79
2024/01/30 11:56:37;;;;;;;11.30;7.53;;;10.40;1.00;;;;;;5040057;28;20229;-78
2024/01/30 11:59:04;;;;;;;12.03;8.37;;;10.50;1.00;;;;;;5041191;28;20626;-77
2024/01/30 12:01:32;;;;;;;10.70;7.57;;;10.40;1.00;;;;;;5038639;28;20230;-79
2024/01/30 12:04:00;;;;;;;10.80;7.53;;;10.50;1.00;;;;;;5038963;28;20585;-79
2024/01/30 12:06:27;;;;;;;12.13;7.63;;;10.60;1.00;;;;;;5038767;28;20226;-78
2024/01/30 12:09:00;;;;;;;14.03;8.13;;;10.50;1.00;;;;;;5037889;28;20210;-78
2024/01/30 12:11:29;;;;;;;15.97;8.57;;;10.50;1.00;;;;;;5044215;28;20264;-79
2024/01/30 12:13:57;;;;;;;13.17;8.03;;;10.70;1.00;;;;;;5041951;28;20210;-80
2024/01/30 12:16:24;;;;;;;12.83;7.67;;;10.70;1.00;;;;;;5056133;28;20692;-80
2024/01/30 12:19:00;;;;;;;12.63;7.90;;;10.70;1.00;;;;;;5037212;28;20207;-79
2024/01/30 12:21:27;;;;;;;11.73;7.27;;;10.90;1.00;;;;;;5044607;28;20209;-79
2024/01/30 12:23:54;;;;;;;10.77;7.83;;;11.10;1.00;;;;;;5039392;28;20298;-80
2024/01/30 12:26:21;;;;;;;9.80;7.33;;;11.30;1.00;;;;;;5039668;28;20223;-77
2024/01/30 12:28:54;;;;;;;11.83;7.33;;;11.70;1.00;;;;;;5042699;28;20199;-79
2024/01/30 12:31:26;;;;;;;12.70;7.67;;;12.40;1.00;;;;;;5047368;28;20214;-79
2024/01/30 12:33:55;;;;;;;10.60;6.97;;;12.80;99.90;;;;;;5035954;28;20200;-78
2024/01/30 12:36:22;;;;;;;11.80;7.60;;;12.80;99.90;;;;;;5045050;28;20716;-78
2024/01/30 12:38:49;;;;;;;10.53;7.30;;;13.10;99.90;;;;;;5040988;28;20204;-78
2024/01/30 12:41:16;;;;;;;11.53;7.33;;;13.20;99.90;;;;;;5041110;28;20206;-78
2024/01/30 12:43:43;;;;;;;14.50;7.40;;;13.10;99.90;;;;;;5034454;28;20199;-79
2024/01/30 12:46:10;;;;;;;10.23;6.77;;;13.00;99.90;;;;;;5041919;28;20710;-77
2024/01/30 12:48:37;;;;;;;11.03;7.20;;;12.50;99.90;;;;;;5039944;28;20210;-78
2024/01/30 12:51:05;;;;;;;12.03;6.80;;;12.00;99.90;;;;;;5043524;28;20200;-78